Cameron Mills, New York
Current Conditions -  °F | °C
As of 3:18 AM on Monday 24 Nov 2014 (Local Time) from KELM Reporting Station
Heavy Rain Heavy Rain  
Wind Chill: 51°   Ceiling: 5000
Heat Index: 51°   Visibility: 2.5mi
Dew Point: 49°   Wind: 15mph
Humidity: 92%   Direction: 140°SE
Pressure: 29.53"   Gusts: 23mph
Location:  42.18°N, 77.36°W
Report Text: KELM 240818Z AUTO 14013G20KT 2 1/2SM +RA BR BKN050 OVC090 11/09 A2953 RMK AO2 P0010 T01060094
Loading
Personal Weather Stations






























Interactive Weather Map New forecast layout! Learn more

10-Day Weather Forecast

Advertisements
Track Severe Weather on mobile